Thunder radar more information blitzortung!


Löydät sääaseman tiedot myös:

European Weather Network

Finland Weather Exchange

Weather Underground

AWEKAS



Weather Underground säähistoriasivu

Päivittäin yhteenveto Marraskuu 28, 2017 Yksiköt:  Englantilaiset    Metriset   Molemmat
« Edellinen Päivä
Seuraava Päivä »
Päivittäin Viikoittain Kuukausittain Vuosittain Mukautettu
  Korkea: Matala: Keskiarvo:
Lämpötila: TemperatureC °F -0.2 °F 0.8 °F
Kastepiste: DewpointC °F -0.6 °F 0.5 °F
Kosteus: Humidity % 97 % 97 %
Tuulen nopeus: WindSpeedKMH mph 0.0 mph 0.2 mph
Tuulenpuuska: WindSpeedGustKMH mph - -
Tuuli:- - SSW
Ilmanpaine: PressurehPa in 1002.3 in -
Sade: 0.0 in    
Historical Graphs
 
 
Taulukkotiedot Marraskuu 28, 2017
Aika Lämpötila Kastepiste Ilmanpaine Tuuli Tuulen nopeus Tuulenpuuska Kosteus Sademäärä (tunneittain)
TemperatureC °F DewpointC °F PressurehPa in Calm     Humidity % HourlyPrecipMM in
00:00 1.8 °F 1.4 °F 1002.3 in SSW 1.6 mph 6.4 mph 97 % 0.0 in
00:15 1.8 °F 1.4 °F 1002.3 in SSW 1.6 mph 8.0 mph 97 % 0.0 in
00:30 1.7 °F 1.3 °F 1002.3 in SSW 1.6 mph 6.4 mph 97 % 0.0 in
00:45 1.8 °F 1.4 °F 1002.6 in SSW 1.6 mph 8.0 mph 97 % 0.0 in
01:00 1.8 °F 1.4 °F 1002.6 in Calm   3.2 mph 97 % 0.0 in
01:15 1.7 °F 1.3 °F 1002.6 in Calm   8.0 mph 97 % 0.0 in
01:30 1.7 °F 1.3 °F 1002.6 in SSW 1.6 mph 8.0 mph 97 % 0.0 in
01:45 1.7 °F 1.2 °F 1002.9 in SW 1.6 mph 6.4 mph 97 % 0.0 in
02:00 1.7 °F 1.2 °F 1002.9 in SSW 1.6 mph 9.7 mph 97 % 0.0 in
02:15 1.7 °F 1.3 °F 1002.9 in SSW 1.6 mph 9.7 mph 97 % 0.0 in
02:30 1.7 °F 1.2 °F 1003.3 in Calm   6.4 mph 97 % 0.0 in
02:45 1.6 °F 1.1 °F 1003.3 in Calm   4.8 mph 97 % 0.0 in
03:00 1.6 °F 1.1 °F 1003.6 in Calm     97 % 0.0 in
03:15 1.5 °F 1.1 °F 1003.6 in Calm     97 % 0.0 in
03:30 1.5 °F 1.1 °F 1003.6 in Calm     97 % 0.0 in
03:45 1.4 °F 1.0 °F 1003.9 in Calm   1.6 mph 97 % 0.0 in
04:00 1.4 °F 1.0 °F 1003.9 in SSW 1.6 mph 6.4 mph 97 % 0.0 in
04:15 1.4 °F 1.0 °F 1004.3 in Calm     97 % 0.0 in
04:30 1.3 °F 0.9 °F 1003.9 in Calm   4.8 mph 97 % 0.0 in
04:45 1.1 °F 0.7 °F 1004.3 in Calm     97 % 0.0 in
05:00 0.9 °F 0.5 °F 1004.3 in Calm   1.6 mph 97 % 0.0 in
05:15 0.8 °F 0.4 °F 1004.3 in South 1.6 mph 8.0 mph 97 % 0.0 in
05:30 0.7 °F 0.2 °F 1004.6 in SSE 1.6 mph 8.0 mph 97 % 0.0 in
05:45 0.6 °F 0.2 °F 1004.6 in Calm   3.2 mph 97 % 0.0 in
06:00 0.4 °F 0.0 °F 1004.6 in Calm     97 % 0.0 in
06:15 0.2 °F -0.2 °F 1004.6 in Calm     97 % 0.0 in
06:30 0.0 °F -0.4 °F 1005.0 in Calm     97 % 0.0 in
06:45 -0.2 °F -0.6 °F 1005.0 in Calm     97 % 0.0 in
07:00 -0.2 °F -0.6 °F 1005.0 in Calm     97 % 0.0 in
07:15 -0.1 °F -0.5 °F 1005.3 in Calm   3.2 mph 97 % 0.0 in
07:30 0.2 °F -0.1 °F 1005.3 in Calm   6.4 mph 98 % 0.0 in
07:45 0.3 °F 0.1 °F 1005.3 in Calm   1.6 mph 98 % 0.0 in
08:00 0.4 °F 0.2 °F 1005.3 in Calm   1.6 mph 98 % 0.0 in
08:15 0.4 °F 0.2 °F 1005.6 in Calm     98 % 0.0 in
08:30 0.5 °F 0.2 °F 1005.6 in Calm   3.2 mph 98 % 0.0 in
08:45 0.5 °F 0.2 °F 1006.0 in Calm     98 % 0.0 in
09:00 0.5 °F 0.2 °F 1006.0 in Calm     98 % 0.0 in
09:15 0.5 °F 0.2 °F 1006.3 in Calm     98 % 0.0 in
09:30 0.5 °F 0.2 °F 1006.7 in Calm     98 % 0.0 in
09:45 0.3 °F 0.1 °F 1006.7 in Calm     98 % 0.0 in
10:00 0.1 °F -0.3 °F 1007.0 in Calm     97 % 0.0 in
10:15 0.1 °F -0.4 °F 1007.0 in Calm     97 % 0.0 in
10:30 0.1 °F -0.2 °F 1007.0 in Calm     98 % 0.0 in
10:45 0.2 °F -0.1 °F 1007.0 in Calm     98 % 0.0 in
11:00 0.2 °F -0.1 °F 1007.0 in Calm     98 % 0.0 in
11:15 0.2 °F -0.1 °F 1007.3 in Calm     98 % 0.0 in
11:30 0.1 °F -0.2 °F 1007.3 in Calm     98 % 0.0 in
11:45 0.2 °F -0.1 °F 1007.3 in Calm     98 % 0.0 in
12:00 0.2 °F -0.1 °F 1007.0 in Calm     98 % 0.0 in
12:15 0.3 °F 0.1 °F 1007.0 in Calm     98 % 0.0 in
12:30 0.3 °F 0.1 °F 1007.3 in Calm     98 % 0.0 in
12:45 0.3 °F 0.1 °F 1007.0 in Calm     98 % 0.0 in
13:00 0.4 °F 0.1 °F 1007.0 in Calm     98 % 0.0 in
13:15 0.5 °F 0.2 °F 1007.0 in Calm     98 % 0.0 in
13:30 0.5 °F 0.2 °F 1007.0 in Calm     98 % 0.0 in
13:45 0.6 °F 0.3 °F 1007.0 in Calm     98 % 0.0 in
14:00 0.6 °F 0.3 °F 1006.7 in Calm     98 % 0.0 in
14:30 0.7 °F 0.4 °F 1006.7 in Calm     98 % 0.0 in
14:45 0.7 °F 0.4 °F 1006.7 in Calm     98 % 0.0 in
15:00 0.7 °F 0.4 °F 1006.7 in Calm     98 % 0.0 in
15:15 0.7 °F 0.4 °F 1006.7 in Calm     98 % 0.0 in
15:30 0.7 °F 0.4 °F 1006.7 in Calm     98 % 0.0 in
16:00 0.7 °F 0.4 °F 1006.3 in Calm     98 % 0.0 in
16:15 0.7 °F 0.4 °F 1006.3 in Calm     98 % 0.0 in
16:30 0.7 °F 0.4 °F 1006.3 in Calm     98 % 0.0 in
16:45 0.7 °F 0.4 °F 1006.3 in Calm     98 % 0.0 in
17:15 0.9 °F 0.7 °F 1006.3 in Calm     98 % 0.0 in
17:30 0.9 °F 0.7 °F 1006.0 in Calm     98 % 0.0 in
17:45 0.9 °F 0.7 °F 1006.0 in Calm     98 % 0.0 in
18:00 0.9 °F 0.7 °F 1006.0 in Calm     98 % 0.0 in
18:15 0.9 °F 0.7 °F 1006.0 in Calm     98 % 0.0 in
18:30 0.9 °F 0.7 °F 1006.0 in Calm     98 % 0.0 in
18:45 0.9 °F 0.7 °F 1006.0 in Calm     98 % 0.0 in
19:00 1.0 °F 0.7 °F 1006.0 in Calm     98 % 0.0 in
19:30 1.1 °F 0.8 °F 1006.0 in Calm     98 % 0.0 in
19:45 1.1 °F 0.8 °F 1005.6 in Calm     98 % 0.0 in
20:00 1.2 °F 0.9 °F 1005.6 in Calm     98 % 0.0 in
20:15 1.2 °F 0.9 °F 1005.6 in Calm   3.2 mph 98 % 0.0 in
20:30 1.2 °F 0.9 °F 1005.6 in Calm     98 % 0.0 in
20:45 1.2 °F 0.9 °F 1005.6 in Calm     98 % 0.0 in
21:15 1.1 °F 0.8 °F 1005.6 in Calm     98 % 0.0 in
21:30 0.9 °F 0.7 °F 1005.6 in Calm   1.6 mph 98 % 0.0 in
21:45 0.8 °F 0.6 °F 1005.6 in Calm   1.6 mph 98 % 0.0 in
22:15 0.6 °F 0.3 °F 1005.3 in Calm     98 % 0.0 in
22:30 0.6 °F 0.3 °F 1005.3 in Calm     98 % 0.0 in
22:45 0.6 °F 0.3 °F 1005.3 in Calm   1.6 mph 98 % 0.0 in
23:00 0.6 °F 0.3 °F 1005.3 in Calm     98 % 0.0 in
23:15 0.5 °F 0.2 °F 1005.3 in Calm     98 % 0.0 in
23:30 0.4 °F 0.2 °F 1005.3 in Calm     98 % 0.0 in
23:45 0.4 °F 0.2 °F 1005.3 in Calm     98 % 0.0 in
Esan sääasema
Terveisin Weather Underground - 2.75 mb

Alkuperäinen skripti  Jim McMurry - jmcmurry@mwt.net Sovitettu myös templatelle  Wim van der Kuil - Leuven-Template.eu

Laitteet joita käytämme:

Sääasema
Davis VP2

Sääasemaohjelma
Cumulus

Sääaseman tietokone
Asus EeePC

Palveluntarjoaja
Suncomet

Davis VP2

Cumulus

Asus EeePC

Suncomet